sensor_id;sensor_type;location;lat;lon;timestamp;temperature;humidity
15564;DHT22;7883;52.554;13.364;2023-09-07T00:01:51;19.90;99.90
15564;DHT22;7883;52.554;13.364;2023-09-07T00:04:18;19.80;99.90
15564;DHT22;7883;52.554;13.364;2023-09-07T00:06:46;19.70;99.90
15564;DHT22;7883;52.554;13.364;2023-09-07T00:09:16;19.70;99.90
15564;DHT22;7883;52.554;13.364;2023-09-07T00:11:44;19.70;99.90
15564;DHT22;7883;52.554;13.364;2023-09-07T00:14:11;19.70;99.90
15564;DHT22;7883;52.554;13.364;2023-09-07T00:16:38;19.70;99.90
15564;DHT22;7883;52.554;13.364;2023-09-07T00:19:05;19.60;99.90
15564;DHT22;7883;52.554;13.364;2023-09-07T00:21:32;19.60;99.90
15564;DHT22;7883;52.554;13.364;2023-09-07T00:23:59;19.60;99.90
15564;DHT22;7883;52.554;13.364;2023-09-07T00:26:32;19.60;99.90
15564;DHT22;7883;52.554;13.364;2023-09-07T00:28:59;19.50;99.90
15564;DHT22;7883;52.554;13.364;2023-09-07T00:31:27;19.50;99.90
15564;DHT22;7883;52.554;13.364;2023-09-07T00:33:54;19.40;99.90
15564;DHT22;7883;52.554;13.364;2023-09-07T00:36:20;19.40;99.90
15564;DHT22;7883;52.554;13.364;2023-09-07T00:38:47;19.30;99.90
15564;DHT22;7883;52.554;13.364;2023-09-07T00:41:14;19.40;99.90
15564;DHT22;7883;52.554;13.364;2023-09-07T00:43:43;19.30;99.90
15564;DHT22;7883;52.554;13.364;2023-09-07T00:46:09;19.30;99.90
15564;DHT22;7883;52.554;13.364;2023-09-07T00:48:37;19.30;99.90
15564;DHT22;7883;52.554;13.364;2023-09-07T00:51:05;19.30;99.90
15564;DHT22;7883;52.554;13.364;2023-09-07T00:53:32;19.30;99.90
15564;DHT22;7883;52.554;13.364;2023-09-07T00:56:00;19.20;99.90
15564;DHT22;7883;52.554;13.364;2023-09-07T00:58:27;19.20;99.90
15564;DHT22;7883;52.554;13.364;2023-09-07T01:00:55;19.30;99.90
15564;DHT22;7883;52.554;13.364;2023-09-07T01:03:23;19.20;99.90
15564;DHT22;7883;52.554;13.364;2023-09-07T01:05:56;19.10;99.90
15564;DHT22;7883;52.554;13.364;2023-09-07T01:08:26;19.10;99.90
15564;DHT22;7883;52.554;13.364;2023-09-07T01:10:55;19.10;99.90
15564;DHT22;7883;52.554;13.364;2023-09-07T01:13:22;19.10;99.90
15564;DHT22;7883;52.554;13.364;2023-09-07T01:15:49;19.10;99.90
15564;DHT22;7883;52.554;13.364;2023-09-07T01:18:18;19.10;99.90
15564;DHT22;7883;52.554;13.364;2023-09-07T01:20:47;19.10;99.90
15564;DHT22;7883;52.554;13.364;2023-09-07T01:23:16;19.00;99.90
15564;DHT22;7883;52.554;13.364;2023-09-07T01:25:46;19.10;99.90
15564;DHT22;7883;52.554;13.364;2023-09-07T01:28:13;19.10;99.90
15564;DHT22;7883;52.554;13.364;2023-09-07T01:30:41;19.00;99.90
15564;DHT22;7883;52.554;13.364;2023-09-07T01:33:08;19.10;99.90
15564;DHT22;7883;52.554;13.364;2023-09-07T01:35:35;19.10;99.90
15564;DHT22;7883;52.554;13.364;2023-09-07T01:38:03;19.00;99.90
15564;DHT22;7883;52.554;13.364;2023-09-07T01:40:31;19.00;99.90
15564;DHT22;7883;52.554;13.364;2023-09-07T01:42:58;18.90;99.90
15564;DHT22;7883;52.554;13.364;2023-09-07T01:45:25;18.80;99.90
15564;DHT22;7883;52.554;13.364;2023-09-07T01:47:52;18.80;99.90
15564;DHT22;7883;52.554;13.364;2023-09-07T01:50:19;18.70;99.90
15564;DHT22;7883;52.554;13.364;2023-09-07T01:52:47;18.70;99.90
15564;DHT22;7883;52.554;13.364;2023-09-07T01:55:14;18.70;99.90
15564;DHT22;7883;52.554;13.364;2023-09-07T01:57:43;18.70;99.90
15564;DHT22;7883;52.554;13.364;2023-09-07T02:00:11;18.70;99.90
15564;DHT22;7883;52.554;13.364;2023-09-07T02:02:38;18.70;99.90
15564;DHT22;7883;52.554;13.364;2023-09-07T02:05:05;18.70;99.90
15564;DHT22;7883;52.554;13.364;2023-09-07T02:07:33;18.60;99.90
15564;DHT22;7883;52.554;13.364;2023-09-07T02:10:00;18.70;99.90
15564;DHT22;7883;52.554;13.364;2023-09-07T02:12:28;18.60;99.90
15564;DHT22;7883;52.554;13.364;2023-09-07T02:14:58;18.60;99.90
15564;DHT22;7883;52.554;13.364;2023-09-07T02:17:26;18.50;99.90
15564;DHT22;7883;52.554;13.364;2023-09-07T02:19:52;18.50;99.90
15564;DHT22;7883;52.554;13.364;2023-09-07T02:22:19;18.50;99.90
15564;DHT22;7883;52.554;13.364;2023-09-07T02:24:46;18.50;99.90
15564;DHT22;7883;52.554;13.364;2023-09-07T02:27:13;18.50;99.90
15564;DHT22;7883;52.554;13.364;2023-09-07T02:29:40;18.50;99.90
15564;DHT22;7883;52.554;13.364;2023-09-07T02:32:08;18.50;99.90
15564;DHT22;7883;52.554;13.364;2023-09-07T02:34:35;18.50;99.90
15564;DHT22;7883;52.554;13.364;2023-09-07T02:37:03;18.40;99.90
15564;DHT22;7883;52.554;13.364;2023-09-07T02:39:30;18.40;99.90
15564;DHT22;7883;52.554;13.364;2023-09-07T02:41:57;18.40;99.90
15564;DHT22;7883;52.554;13.364;2023-09-07T02:44:24;18.30;99.90
15564;DHT22;7883;52.554;13.364;2023-09-07T02:46:51;18.40;99.90
15564;DHT22;7883;52.554;13.364;2023-09-07T02:49:19;18.30;99.90
15564;DHT22;7883;52.554;13.364;2023-09-07T02:51:46;18.40;99.90
15564;DHT22;7883;52.554;13.364;2023-09-07T02:54:13;18.40;99.90
15564;DHT22;7883;52.554;13.364;2023-09-07T02:56:41;18.40;99.90
15564;DHT22;7883;52.554;13.364;2023-09-07T02:59:08;18.40;99.90
15564;DHT22;7883;52.554;13.364;2023-09-07T03:01:35;18.30;99.90
15564;DHT22;7883;52.554;13.364;2023-09-07T03:04:05;18.30;99.90
15564;DHT22;7883;52.554;13.364;2023-09-07T03:06:34;18.30;99.90
15564;DHT22;7883;52.554;13.364;2023-09-07T03:09:01;18.30;99.90
15564;DHT22;7883;52.554;13.364;2023-09-07T03:11:28;18.30;99.90
15564;DHT22;7883;52.554;13.364;2023-09-07T03:13:59;18.20;99.90
15564;DHT22;7883;52.554;13.364;2023-09-07T03:16:26;18.20;99.90
15564;DHT22;7883;52.554;13.364;2023-09-07T03:18:52;18.20;99.90
15564;DHT22;7883;52.554;13.364;2023-09-07T03:21:19;18.10;99.90
15564;DHT22;7883;52.554;13.364;2023-09-07T03:23:53;18.10;99.90
15564;DHT22;7883;52.554;13.364;2023-09-07T03:26:20;18.10;99.90
15564;DHT22;7883;52.554;13.364;2023-09-07T03:28:47;18.10;99.90
15564;DHT22;7883;52.554;13.364;2023-09-07T03:31:14;18.10;99.90
15564;DHT22;7883;52.554;13.364;2023-09-07T03:33:41;18.10;99.90
15564;DHT22;7883;52.554;13.364;2023-09-07T03:36:08;18.10;99.90
15564;DHT22;7883;52.554;13.364;2023-09-07T03:38:35;18.10;99.90
15564;DHT22;7883;52.554;13.364;2023-09-07T03:41:04;18.00;99.90
15564;DHT22;7883;52.554;13.364;2023-09-07T03:43:30;18.00;99.90
15564;DHT22;7883;52.554;13.364;2023-09-07T03:45:57;18.00;99.90
15564;DHT22;7883;52.554;13.364;2023-09-07T03:48:24;18.00;99.90
15564;DHT22;7883;52.554;13.364;2023-09-07T03:50:51;18.00;99.90
15564;DHT22;7883;52.554;13.364;2023-09-07T03:53:18;17.90;99.90
15564;DHT22;7883;52.554;13.364;2023-09-07T03:55:45;17.90;99.90
15564;DHT22;7883;52.554;13.364;2023-09-07T03:58:13;17.90;99.90
15564;DHT22;7883;52.554;13.364;2023-09-07T04:00:40;17.90;99.90
15564;DHT22;7883;52.554;13.364;2023-09-07T04:03:07;17.80;99.90
15564;DHT22;7883;52.554;13.364;2023-09-07T04:05:37;17.80;99.90
15564;DHT22;7883;52.554;13.364;2023-09-07T04:08:06;17.70;99.90
15564;DHT22;7883;52.554;13.364;2023-09-07T04:10:33;17.70;99.90
15564;DHT22;7883;52.554;13.364;2023-09-07T04:13:00;17.70;99.90
15564;DHT22;7883;52.554;13.364;2023-09-07T04:15:28;17.70;99.90
15564;DHT22;7883;52.554;13.364;2023-09-07T04:17:57;17.70;99.90
15564;DHT22;7883;52.554;13.364;2023-09-07T04:20:24;17.70;99.90
15564;DHT22;7883;52.554;13.364;2023-09-07T04:22:51;17.60;99.90
15564;DHT22;7883;52.554;13.364;2023-09-07T04:25:19;17.50;99.90
15564;DHT22;7883;52.554;13.364;2023-09-07T04:27:46;17.50;99.90
15564;DHT22;7883;52.554;13.364;2023-09-07T04:30:13;17.60;99.90
15564;DHT22;7883;52.554;13.364;2023-09-07T04:32:42;17.60;99.90
15564;DHT22;7883;52.554;13.364;2023-09-07T04:35:09;17.60;99.90
15564;DHT22;7883;52.554;13.364;2023-09-07T04:37:36;17.70;99.90
15564;DHT22;7883;52.554;13.364;2023-09-07T04:40:05;17.70;99.90
15564;DHT22;7883;52.554;13.364;2023-09-07T04:42:32;17.80;99.90
15564;DHT22;7883;52.554;13.364;2023-09-07T04:44:59;17.80;99.90
15564;DHT22;7883;52.554;13.364;2023-09-07T04:47:26;17.80;99.90
15564;DHT22;7883;52.554;13.364;2023-09-07T04:49:54;17.80;99.90
15564;DHT22;7883;52.554;13.364;2023-09-07T04:52:21;17.80;99.90
15564;DHT22;7883;52.554;13.364;2023-09-07T04:54:48;17.90;99.90
15564;DHT22;7883;52.554;13.364;2023-09-07T04:57:16;17.80;99.90
15564;DHT22;7883;52.554;13.364;2023-09-07T04:59:44;17.80;99.90
15564;DHT22;7883;52.554;13.364;2023-09-07T05:02:10;18.70;99.90
15564;DHT22;7883;52.554;13.364;2023-09-07T05:04:38;19.80;99.90
15564;DHT22;7883;52.554;13.364;2023-09-07T05:07:06;20.60;99.90
15564;DHT22;7883;52.554;13.364;2023-09-07T05:09:33;20.90;99.90
15564;DHT22;7883;52.554;13.364;2023-09-07T05:12:00;21.50;99.90
15564;DHT22;7883;52.554;13.364;2023-09-07T05:14:28;22.00;99.90
15564;DHT22;7883;52.554;13.364;2023-09-07T05:16:55;21.10;99.90
15564;DHT22;7883;52.554;13.364;2023-09-07T05:19:23;20.40;99.90
15564;DHT22;7883;52.554;13.364;2023-09-07T05:21:54;19.70;99.90
15564;DHT22;7883;52.554;13.364;2023-09-07T05:24:22;19.40;99.90
15564;DHT22;7883;52.554;13.364;2023-09-07T05:26:50;19.20;99.90
15564;DHT22;7883;52.554;13.364;2023-09-07T05:29:17;19.10;99.90
15564;DHT22;7883;52.554;13.364;2023-09-07T05:31:46;19.00;99.90
15564;DHT22;7883;52.554;13.364;2023-09-07T05:34:12;19.10;99.90
15564;DHT22;7883;52.554;13.364;2023-09-07T05:36:39;18.90;99.90
15564;DHT22;7883;52.554;13.364;2023-09-07T05:39:06;18.90;99.90
15564;DHT22;7883;52.554;13.364;2023-09-07T05:41:35;18.80;99.90
15564;DHT22;7883;52.554;13.364;2023-09-07T05:44:02;18.80;99.90
15564;DHT22;7883;52.554;13.364;2023-09-07T05:46:29;18.80;99.90
15564;DHT22;7883;52.554;13.364;2023-09-07T05:48:56;18.80;99.90
15564;DHT22;7883;52.554;13.364;2023-09-07T05:51:23;18.80;99.90
15564;DHT22;7883;52.554;13.364;2023-09-07T05:53:50;18.80;99.90
15564;DHT22;7883;52.554;13.364;2023-09-07T05:56:17;18.80;99.90
15564;DHT22;7883;52.554;13.364;2023-09-07T05:58:45;18.80;99.90
15564;DHT22;7883;52.554;13.364;2023-09-07T06:01:12;18.80;99.90
15564;DHT22;7883;52.554;13.364;2023-09-07T06:03:39;18.90;99.90
15564;DHT22;7883;52.554;13.364;2023-09-07T06:06:06;19.00;99.90
15564;DHT22;7883;52.554;13.364;2023-09-07T06:08:33;19.10;99.90
15564;DHT22;7883;52.554;13.364;2023-09-07T06:11:00;19.20;99.90
15564;DHT22;7883;52.554;13.364;2023-09-07T06:13:27;19.20;99.90
15564;DHT22;7883;52.554;13.364;2023-09-07T06:15:57;19.20;99.90
15564;DHT22;7883;52.554;13.364;2023-09-07T06:18:26;19.30;99.90
15564;DHT22;7883;52.554;13.364;2023-09-07T06:20:53;19.40;99.90
15564;DHT22;7883;52.554;13.364;2023-09-07T06:23:20;19.40;99.90
15564;DHT22;7883;52.554;13.364;2023-09-07T06:25:47;19.40;99.90
15564;DHT22;7883;52.554;13.364;2023-09-07T06:28:14;19.50;99.90
15564;DHT22;7883;52.554;13.364;2023-09-07T06:30:41;19.60;99.90
15564;DHT22;7883;52.554;13.364;2023-09-07T06:33:09;19.60;99.90
15564;DHT22;7883;52.554;13.364;2023-09-07T06:35:36;19.70;99.90
15564;DHT22;7883;52.554;13.364;2023-09-07T06:38:03;19.70;99.90
15564;DHT22;7883;52.554;13.364;2023-09-07T06:40:31;19.80;99.90
15564;DHT22;7883;52.554;13.364;2023-09-07T06:42:57;19.90;99.90
15564;DHT22;7883;52.554;13.364;2023-09-07T06:45:25;19.90;99.90
15564;DHT22;7883;52.554;13.364;2023-09-07T06:47:52;20.00;99.90
15564;DHT22;7883;52.554;13.364;2023-09-07T06:50:22;20.10;99.90
15564;DHT22;7883;52.554;13.364;2023-09-07T06:52:49;20.20;99.90
15564;DHT22;7883;52.554;13.364;2023-09-07T06:55:16;20.30;99.90
15564;DHT22;7883;52.554;13.364;2023-09-07T06:57:43;20.30;99.90
15564;DHT22;7883;52.554;13.364;2023-09-07T07:00:11;20.40;99.90
15564;DHT22;7883;52.554;13.364;2023-09-07T07:02:38;20.50;99.90
15564;DHT22;7883;52.554;13.364;2023-09-07T07:05:06;20.60;99.90
15564;DHT22;7883;52.554;13.364;2023-09-07T07:07:35;20.60;99.90
15564;DHT22;7883;52.554;13.364;2023-09-07T07:10:02;20.70;99.90
15564;DHT22;7883;52.554;13.364;2023-09-07T07:12:30;20.80;99.90
15564;DHT22;7883;52.554;13.364;2023-09-07T07:15:00;20.90;99.90
15564;DHT22;7883;52.554;13.364;2023-09-07T07:17:27;21.00;99.90
15564;DHT22;7883;52.554;13.364;2023-09-07T07:19:54;21.10;99.90
15564;DHT22;7883;52.554;13.364;2023-09-07T07:22:21;21.20;99.90
15564;DHT22;7883;52.554;13.364;2023-09-07T07:24:49;21.20;99.90
15564;DHT22;7883;52.554;13.364;2023-09-07T07:27:16;21.30;99.90
15564;DHT22;7883;52.554;13.364;2023-09-07T07:29:43;21.40;99.90
15564;DHT22;7883;52.554;13.364;2023-09-07T07:32:10;21.40;99.90
15564;DHT22;7883;52.554;13.364;2023-09-07T07:34:37;21.50;99.90
15564;DHT22;7883;52.554;13.364;2023-09-07T07:37:04;21.50;99.90
15564;DHT22;7883;52.554;13.364;2023-09-07T07:39:31;21.60;99.90
15564;DHT22;7883;52.554;13.364;2023-09-07T13:27:35;27.50;99.90
15564;DHT22;7883;52.554;13.364;2023-09-07T13:30:02;27.50;99.90
15564;DHT22;7883;52.554;13.364;2023-09-07T13:32:33;27.30;99.90
15564;DHT22;7883;52.554;13.364;2023-09-07T13:35:00;27.20;99.90
15564;DHT22;7883;52.554;13.364;2023-09-07T13:37:27;27.30;99.90
15564;DHT22;7883;52.554;13.364;2023-09-07T13:39:54;27.30;99.90
15564;DHT22;7883;52.554;13.364;2023-09-07T13:42:24;27.40;99.90
15564;DHT22;7883;52.554;13.364;2023-09-07T13:44:53;27.60;99.90
15564;DHT22;7883;52.554;13.364;2023-09-07T13:47:21;27.50;99.90
15564;DHT22;7883;52.554;13.364;2023-09-07T13:49:48;27.60;99.90
15564;DHT22;7883;52.554;13.364;2023-09-07T13:52:16;27.60;99.90
15564;DHT22;7883;52.554;13.364;2023-09-07T13:54:42;27.60;99.90
15564;DHT22;7883;52.554;13.364;2023-09-07T13:57:09;27.60;99.90
15564;DHT22;7883;52.554;13.364;2023-09-07T13:59:36;27.50;99.90
15564;DHT22;7883;52.554;13.364;2023-09-07T14:02:06;27.40;99.90
15564;DHT22;7883;52.554;13.364;2023-09-07T14:04:32;27.50;99.90
15564;DHT22;7883;52.554;13.364;2023-09-07T14:06:59;27.50;99.90
15564;DHT22;7883;52.554;13.364;2023-09-07T14:09:26;27.30;99.90
15564;DHT22;7883;52.554;13.364;2023-09-07T14:11:53;27.30;99.90
15564;DHT22;7883;52.554;13.364;2023-09-07T14:14:22;27.40;99.90
15564;DHT22;7883;52.554;13.364;2023-09-07T14:16:49;27.40;99.90
15564;DHT22;7883;52.554;13.364;2023-09-07T14:19:23;27.50;99.90
15564;DHT22;7883;52.554;13.364;2023-09-07T14:21:51;27.50;99.90
15564;DHT22;7883;52.554;13.364;2023-09-07T14:24:18;27.50;99.90
15564;DHT22;7883;52.554;13.364;2023-09-07T14:26:45;27.50;99.90
15564;DHT22;7883;52.554;13.364;2023-09-07T14:29:13;27.60;99.90
15564;DHT22;7883;52.554;13.364;2023-09-07T14:31:40;27.50;99.90
15564;DHT22;7883;52.554;13.364;2023-09-07T14:34:07;27.50;99.90
15564;DHT22;7883;52.554;13.364;2023-09-07T14:36:36;27.40;99.90
15564;DHT22;7883;52.554;13.364;2023-09-07T14:39:05;27.40;99.90
15564;DHT22;7883;52.554;13.364;2023-09-07T14:41:32;27.50;99.90
15564;DHT22;7883;52.554;13.364;2023-09-07T14:44:00;27.50;99.90
15564;DHT22;7883;52.554;13.364;2023-09-07T14:46:27;27.50;99.90
15564;DHT22;7883;52.554;13.364;2023-09-07T14:48:55;27.50;99.90
15564;DHT22;7883;52.554;13.364;2023-09-07T14:51:23;27.40;99.90
15564;DHT22;7883;52.554;13.364;2023-09-07T14:53:52;27.40;99.90
15564;DHT22;7883;52.554;13.364;2023-09-07T14:56:19;27.40;99.90
15564;DHT22;7883;52.554;13.364;2023-09-07T14:58:46;27.50;99.90
15564;DHT22;7883;52.554;13.364;2023-09-07T15:01:13;27.40;99.90
15564;DHT22;7883;52.554;13.364;2023-09-07T15:03:40;27.50;99.90
15564;DHT22;7883;52.554;13.364;2023-09-07T15:06:07;27.50;99.90
15564;DHT22;7883;52.554;13.364;2023-09-07T15:08:37;27.40;99.90
15564;DHT22;7883;52.554;13.364;2023-09-07T15:11:05;27.40;99.90
15564;DHT22;7883;52.554;13.364;2023-09-07T15:13:32;27.50;99.90
15564;DHT22;7883;52.554;13.364;2023-09-07T15:16:02;27.50;99.90
15564;DHT22;7883;52.554;13.364;2023-09-07T15:18:30;27.40;99.90
15564;DHT22;7883;52.554;13.364;2023-09-07T15:20:57;27.30;99.90
15564;DHT22;7883;52.554;13.364;2023-09-07T15:23:24;27.40;99.90
15564;DHT22;7883;52.554;13.364;2023-09-07T15:25:52;27.40;99.90
15564;DHT22;7883;52.554;13.364;2023-09-07T15:28:20;27.40;99.90
15564;DHT22;7883;52.554;13.364;2023-09-07T15:30:47;27.40;99.90
15564;DHT22;7883;52.554;13.364;2023-09-07T15:33:15;27.40;99.90
15564;DHT22;7883;52.554;13.364;2023-09-07T15:35:42;27.30;99.90
15564;DHT22;7883;52.554;13.364;2023-09-07T15:38:09;27.20;99.90
15564;DHT22;7883;52.554;13.364;2023-09-07T15:40:36;27.20;99.90
15564;DHT22;7883;52.554;13.364;2023-09-07T15:43:04;27.30;99.90
15564;DHT22;7883;52.554;13.364;2023-09-07T15:45:34;27.20;99.90
15564;DHT22;7883;52.554;13.364;2023-09-07T15:48:04;27.10;99.90
15564;DHT22;7883;52.554;13.364;2023-09-07T15:50:32;27.00;99.90
15564;DHT22;7883;52.554;13.364;2023-09-07T15:52:59;27.10;99.90
15564;DHT22;7883;52.554;13.364;2023-09-07T15:55:27;27.10;99.90
15564;DHT22;7883;52.554;13.364;2023-09-07T15:57:55;27.10;99.90
15564;DHT22;7883;52.554;13.364;2023-09-07T16:00:22;27.10;99.90
15564;DHT22;7883;52.554;13.364;2023-09-07T16:02:50;27.10;99.90
15564;DHT22;7883;52.554;13.364;2023-09-07T16:05:17;27.00;99.90
15564;DHT22;7883;52.554;13.364;2023-09-07T16:07:44;27.00;99.90
15564;DHT22;7883;52.554;13.364;2023-09-07T16:10:12;26.90;99.90
15564;DHT22;7883;52.554;13.364;2023-09-07T16:12:39;26.70;99.90
15564;DHT22;7883;52.554;13.364;2023-09-07T16:15:08;26.60;99.90
15564;DHT22;7883;52.554;13.364;2023-09-07T16:17:35;26.50;99.90
15564;DHT22;7883;52.554;13.364;2023-09-07T16:20:05;26.50;99.90
15564;DHT22;7883;52.554;13.364;2023-09-07T16:22:34;26.40;99.90
15564;DHT22;7883;52.554;13.364;2023-09-07T16:25:01;26.20;99.90
15564;DHT22;7883;52.554;13.364;2023-09-07T16:27:28;26.30;99.90
15564;DHT22;7883;52.554;13.364;2023-09-07T16:29:54;26.50;99.90
15564;DHT22;7883;52.554;13.364;2023-09-07T16:32:22;26.50;99.90
15564;DHT22;7883;52.554;13.364;2023-09-07T16:34:49;26.40;99.90
15564;DHT22;7883;52.554;13.364;2023-09-07T16:37:17;26.40;99.90
15564;DHT22;7883;52.554;13.364;2023-09-07T16:39:50;26.30;99.90
15564;DHT22;7883;52.554;13.364;2023-09-07T16:42:18;26.20;99.90
15564;DHT22;7883;52.554;13.364;2023-09-07T16:44:49;26.10;99.90
15564;DHT22;7883;52.554;13.364;2023-09-07T16:47:17;26.20;99.90
15564;DHT22;7883;52.554;13.364;2023-09-07T16:49:43;26.20;99.90
15564;DHT22;7883;52.554;13.364;2023-09-07T16:52:11;26.00;99.90
15564;DHT22;7883;52.554;13.364;2023-09-07T16:54:39;25.80;99.90
15564;DHT22;7883;52.554;13.364;2023-09-07T16:57:06;25.80;99.90
15564;DHT22;7883;52.554;13.364;2023-09-07T16:59:33;25.60;99.90
15564;DHT22;7883;52.554;13.364;2023-09-07T17:02:01;25.70;99.90
15564;DHT22;7883;52.554;13.364;2023-09-07T17:04:31;25.70;99.90
15564;DHT22;7883;52.554;13.364;2023-09-07T17:06:59;25.70;99.90
15564;DHT22;7883;52.554;13.364;2023-09-07T17:09:28;25.60;99.90
